createdAt,value
2023-03-20T00:02:27.443Z,100289.03
2023-03-20T00:04:55.968Z,100288.88
2023-03-20T00:07:26.546Z,100290.59
2023-03-20T00:09:54.945Z,100292.25
2023-03-20T00:12:26.436Z,100295.75
2023-03-20T00:14:54.968Z,100300.03
2023-03-20T00:17:23.544Z,100306.13
2023-03-20T00:19:51.948Z,100306.97
2023-03-20T00:22:20.692Z,100320.72
2023-03-20T00:24:50.985Z,100312.94
2023-03-20T00:27:19.692Z,100310.47
2023-03-20T00:29:48.879Z,100310.47
2023-03-20T00:32:17.253Z,100309.66
2023-03-20T00:34:45.826Z,100311.44
2023-03-20T00:37:14.906Z,100313.06
2023-03-20T00:39:43.673Z,100313.91
2023-03-20T00:42:22.082Z,100318.25
2023-03-20T00:44:54.173Z,100326.81
2023-03-20T00:47:27.228Z,100323.19
2023-03-20T00:49:57.963Z,100309.97
2023-03-20T00:52:27.307Z,100327.22
2023-03-20T00:54:55.792Z,100326.97
2023-03-20T00:57:29.319Z,100320.69
2023-03-20T01:00:01.461Z,100318.78
2023-03-20T01:02:31.601Z,100310.88
2023-03-20T01:05:03.507Z,100315.09
2023-03-20T01:07:32.383Z,100302.94
2023-03-20T01:10:01.352Z,100304.56
2023-03-20T01:12:31.523Z,100308.00
2023-03-20T01:15:00.465Z,100308.75
2023-03-20T01:17:31.561Z,100294.75
2023-03-20T01:20:00.114Z,100311.25
2023-03-20T01:22:29.594Z,100303.56
2023-03-20T01:24:58.405Z,100304.44
2023-03-20T01:27:27.281Z,100309.75
2023-03-20T01:29:57.430Z,100306.44
2023-03-20T01:32:26.116Z,100313.31
2023-03-20T01:34:54.936Z,100312.50
2023-03-20T01:37:27.190Z,100313.47
2023-03-20T01:39:58.586Z,100310.94
2023-03-20T01:42:28.787Z,100311.00
2023-03-20T01:44:58.898Z,100311.97
2023-03-20T01:47:30.485Z,100313.59
2023-03-20T01:50:32.463Z,100322.88
2023-03-20T01:53:16.213Z,100329.72
2023-03-20T01:55:54.125Z,100336.59
2023-03-20T01:58:30.694Z,100332.19
2023-03-20T02:01:01.309Z,100342.56
2023-03-20T02:03:30.548Z,100333.81
2023-03-20T02:06:25.648Z,100326.84
2023-03-20T02:09:37.153Z,100313.84
2023-03-20T02:12:10.407Z,100308.66
2023-03-20T02:14:40.458Z,100311.34
2023-03-20T02:17:26.440Z,100318.22
2023-03-20T02:20:17.140Z,100308.66
2023-03-20T02:23:36.451Z,100318.09
2023-03-20T02:26:31.527Z,100321.44
2023-03-20T02:29:46.456Z,100317.88
2023-03-20T02:33:18.825Z,100337.78
2023-03-20T02:36:27.520Z,100342.00
2023-03-20T02:39:38.886Z,100328.84
2023-03-20T02:42:14.322Z,100320.22
2023-03-20T02:44:48.492Z,100320.25
2023-03-20T02:47:26.005Z,100307.50
2023-03-20T02:50:01.977Z,100314.53
2023-03-20T02:52:38.421Z,100320.72
2023-03-20T02:55:18.842Z,100317.34
2023-03-20T02:57:59.472Z,100333.81
2023-03-20T03:00:35.846Z,100331.22
2023-03-20T03:03:11.061Z,100338.91
2023-03-20T03:05:47.957Z,100338.91
2023-03-20T03:08:22.431Z,100337.09
2023-03-20T03:10:56.877Z,100343.91
2023-03-20T03:13:30.646Z,100338.63
2023-03-20T03:16:05.561Z,100336.81
2023-03-20T03:18:36.124Z,100346.88
2023-03-20T03:21:07.190Z,100344.09
2023-03-20T03:23:44.871Z,100345.59
2023-03-20T03:26:21.499Z,100347.81
2023-03-20T03:28:53.810Z,100353.69
2023-03-20T03:31:23.119Z,100341.34
2023-03-20T03:33:56.182Z,100337.03
2023-03-20T03:36:39.762Z,100319.69
2023-03-20T03:39:21.345Z,100317.09
2023-03-20T03:41:55.327Z,100313.81
2023-03-20T03:44:29.820Z,100317.38
2023-03-20T03:47:04.890Z,100314.03
2023-03-20T03:49:37.005Z,100288.25
2023-03-20T03:52:11.748Z,100289.25
2023-03-20T03:54:46.645Z,100278.06
2023-03-20T03:57:40.990Z,100271.19
2023-03-20T04:00:19.198Z,100273.84
2023-03-20T04:02:52.733Z,100283.38
2023-03-20T04:05:22.348Z,100290.34
2023-03-20T04:07:56.473Z,100291.31
2023-03-20T04:10:25.273Z,100296.34
2023-03-20T04:12:55.355Z,100309.47
2023-03-20T04:15:24.010Z,100318.97
2023-03-20T04:17:52.369Z,100330.97
2023-03-20T04:20:21.793Z,100330.91
2023-03-20T04:22:50.425Z,100330.91
2023-03-20T04:25:23.051Z,100320.53
2023-03-20T04:27:55.887Z,100315.34
2023-03-20T04:31:01.710Z,100320.38
2023-03-20T04:33:48.544Z,100322.91
2023-03-20T04:36:43.233Z,100309.88
2023-03-20T04:39:14.875Z,100301.22
2023-03-20T04:41:43.289Z,100306.41
2023-03-20T04:44:13.854Z,100295.06
2023-03-20T04:46:45.837Z,100286.31
2023-03-20T04:49:18.036Z,100288.09
2023-03-20T04:51:46.785Z,100294.97
2023-03-20T04:54:17.379Z,100292.47
2023-03-20T04:56:46.131Z,100283.94
2023-03-20T04:59:20.421Z,100285.69
2023-03-20T05:01:48.908Z,100280.50
2023-03-20T05:04:17.838Z,100268.41
2023-03-20T05:06:49.093Z,100268.41
2023-03-20T05:09:20.105Z,100265.84
2023-03-20T05:11:50.287Z,100264.91
2023-03-20T05:14:52.446Z,100275.19
2023-03-20T05:17:47.194Z,100262.13
2023-03-20T05:20:51.779Z,100264.53
2023-03-20T05:23:40.965Z,100270.50
2023-03-20T05:26:39.701Z,100268.56
2023-03-20T05:29:27.430Z,100272.81
2023-03-20T05:32:16.832Z,100278.72
2023-03-20T05:35:00.433Z,100284.72
2023-03-20T05:37:43.784Z,100295.09
2023-03-20T05:40:29.167Z,100294.16
2023-03-20T05:43:23.835Z,100307.03
2023-03-20T05:45:59.686Z,100303.53
2023-03-20T05:48:49.740Z,100303.53
2023-03-20T05:51:28.917Z,100308.72
2023-03-20T05:54:21.115Z,100298.97
2023-03-20T05:57:03.596Z,100301.47
2023-03-20T06:00:12.192Z,100297.94
2023-03-20T06:03:09.653Z,100299.59
2023-03-20T06:05:56.926Z,100298.78
2023-03-20T06:08:25.802Z,100297.09
2023-03-20T06:10:55.463Z,100296.28
2023-03-20T06:13:23.996Z,100299.69
2023-03-20T06:15:52.628Z,100297.94
2023-03-20T06:18:21.649Z,100296.13
2023-03-20T06:20:54.365Z,100298.78
2023-03-20T06:23:24.964Z,100303.13
2023-03-20T06:25:53.814Z,100297.75
2023-03-20T06:28:23.285Z,100318.47
2023-03-20T06:30:59.859Z,100317.59
2023-03-20T06:33:28.926Z,100320.97
2023-03-20T06:36:00.602Z,100323.53
2023-03-20T06:38:33.322Z,100326.16
2023-03-20T06:41:08.899Z,100325.28
2023-03-20T06:43:39.621Z,100327.06
2023-03-20T06:46:09.029Z,100321.88
2023-03-20T06:48:39.055Z,100323.56
2023-03-20T06:51:09.196Z,100326.97
2023-03-20T06:53:49.016Z,100327.81
2023-03-20T06:56:21.245Z,100331.22
2023-03-20T06:58:49.585Z,100337.28
2023-03-20T07:01:20.715Z,100343.28
2023-03-20T07:03:49.280Z,100343.28
2023-03-20T07:06:23.004Z,100338.81
2023-03-20T07:08:55.327Z,100337.94
2023-03-20T07:11:24.178Z,100345.78
2023-03-20T07:13:55.904Z,100345.72
2023-03-20T07:16:39.178Z,100340.53
2023-03-20T07:19:07.594Z,100339.66
2023-03-20T07:21:37.896Z,100343.06
2023-03-20T07:24:08.466Z,100345.72
2023-03-20T07:26:37.097Z,100349.19
2023-03-20T07:29:06.195Z,100348.38
2023-03-20T07:31:35.092Z,100351.94
2023-03-20T07:34:17.166Z,100352.69
2023-03-20T07:36:47.167Z,100358.75
2023-03-20T07:39:21.529Z,100364.84
2023-03-20T07:42:04.265Z,100361.44
2023-03-20T07:44:46.105Z,100368.41
2023-03-20T07:47:14.532Z,100357.28
2023-03-20T07:49:42.912Z,100360.75
2023-03-20T07:52:11.810Z,100371.28
2023-03-20T07:54:41.728Z,100369.59
2023-03-20T07:57:10.579Z,100374.78
2023-03-20T07:59:39.018Z,100374.78
2023-03-20T08:02:07.809Z,100377.28
2023-03-20T08:04:36.508Z,100365.00
2023-03-20T08:07:05.041Z,100365.84
2023-03-20T08:09:33.964Z,100374.59
2023-03-20T08:12:03.704Z,100375.50
2023-03-20T08:14:32.210Z,100383.28
2023-03-20T08:17:13.975Z,100385.88
2023-03-20T08:19:43.558Z,100382.28
2023-03-20T08:22:12.070Z,100385.72
2023-03-20T08:24:41.313Z,100401.28
2023-03-20T08:27:11.427Z,100381.34
2023-03-20T08:29:40.115Z,100377.78
2023-03-20T08:32:08.941Z,100384.59
2023-03-20T08:34:37.598Z,100390.66
2023-03-20T08:37:07.986Z,100373.41
2023-03-20T08:39:36.652Z,100383.06
2023-03-20T08:42:05.669Z,100382.28
2023-03-20T08:44:35.827Z,100386.66
2023-03-20T08:47:05.621Z,100383.28
2023-03-20T08:49:34.223Z,100386.91
2023-03-20T08:52:02.885Z,100384.41
2023-03-20T08:54:31.829Z,100394.78
2023-03-20T08:57:00.139Z,100384.59
2023-03-20T08:59:29.125Z,100388.94
2023-03-20T09:01:59.166Z,100395.00
2023-03-20T09:04:28.042Z,100389.78
2023-03-20T09:06:56.630Z,100387.22
2023-03-20T09:09:29.808Z,100378.63
2023-03-20T09:11:59.240Z,100370.13
2023-03-20T09:14:29.131Z,100384.88
2023-03-20T09:17:00.971Z,100377.16
2023-03-20T09:19:31.680Z,100387.53
2023-03-20T09:22:01.031Z,100386.50
2023-03-20T09:24:29.722Z,100379.41
2023-03-20T09:26:58.620Z,100391.38
2023-03-20T09:29:27.122Z,100391.31
2023-03-20T09:31:55.829Z,100380.03
2023-03-20T09:34:25.754Z,100385.22
2023-03-20T09:36:54.372Z,100394.69
2023-03-20T09:39:22.879Z,100385.88
2023-03-20T09:41:57.563Z,100396.22
2023-03-20T09:44:50.009Z,100389.34
2023-03-20T09:47:27.679Z,100390.16
2023-03-20T09:50:22.393Z,100396.09
2023-03-20T09:52:59.448Z,100395.03
2023-03-20T09:55:36.024Z,100391.63
2023-03-20T09:58:13.323Z,100393.41
2023-03-20T10:00:47.073Z,100383.94
2023-03-20T10:03:21.621Z,100391.84
2023-03-20T10:05:59.611Z,100383.94
2023-03-20T10:08:31.943Z,100397.63
2023-03-20T10:11:17.877Z,100401.91
2023-03-20T10:14:03.508Z,100382.16
2023-03-20T10:16:47.243Z,100387.47
2023-03-20T10:19:24.849Z,100385.72
2023-03-20T10:22:03.651Z,100383.13
2023-03-20T10:24:40.966Z,100387.47
2023-03-20T10:27:24.226Z,100385.06
2023-03-20T10:30:07.629Z,100383.53
2023-03-20T10:32:43.205Z,100382.78
2023-03-20T10:35:21.680Z,100373.38
2023-03-20T10:38:14.797Z,100370.78
2023-03-20T10:40:43.856Z,100366.44
2023-03-20T10:43:19.811Z,100375.31
2023-03-20T10:45:52.566Z,100371.06
2023-03-20T10:48:27.519Z,100370.44
2023-03-20T10:51:00.398Z,100367.97
2023-03-20T10:53:36.349Z,100366.28
2023-03-20T10:56:09.070Z,100370.78
2023-03-20T10:58:41.578Z,100363.06
2023-03-20T11:01:10.935Z,100365.75
2023-03-20T11:03:41.301Z,100359.69
2023-03-20T11:06:19.309Z,100358.91
2023-03-20T11:08:52.674Z,100370.19
2023-03-20T11:11:26.667Z,100365.16
2023-03-20T11:13:56.213Z,100347.81
2023-03-20T11:16:26.908Z,100350.53
2023-03-20T11:18:55.747Z,100350.63
2023-03-20T11:21:28.628Z,100344.69
2023-03-20T11:23:59.209Z,100343.03
2023-03-20T11:26:37.985Z,100340.59
2023-03-20T11:29:11.762Z,100334.44
2023-03-20T11:31:41.936Z,100340.44
2023-03-20T11:34:26.745Z,100337.84
2023-03-20T11:37:09.775Z,100328.38
2023-03-20T11:39:54.976Z,100330.22
2023-03-20T11:42:26.579Z,100321.69
2023-03-20T11:45:04.245Z,100329.53
2023-03-20T11:47:35.875Z,100325.25
2023-03-20T11:50:07.290Z,100317.53
2023-03-20T11:52:38.877Z,100316.66
2023-03-20T11:55:26.196Z,100313.25
2023-03-20T11:57:58.581Z,100322.72
2023-03-20T12:00:30.901Z,100314.06
2023-03-20T12:02:59.378Z,100315.88
2023-03-20T12:05:35.600Z,100307.28
2023-03-20T12:08:10.429Z,100314.19
2023-03-20T12:10:44.842Z,100319.44
2023-03-20T12:13:18.265Z,100312.63
2023-03-20T12:15:51.134Z,100311.84
2023-03-20T12:18:27.875Z,100327.44
2023-03-20T12:21:07.516Z,100330.81
2023-03-20T12:23:41.155Z,100323.66
2023-03-20T12:26:15.664Z,100322.72
2023-03-20T12:28:52.834Z,100324.34
2023-03-20T12:31:28.011Z,100325.25
2023-03-20T12:34:02.316Z,100328.59
2023-03-20T12:36:34.581Z,100324.28
2023-03-20T12:39:08.094Z,100327.75
2023-03-20T12:41:50.858Z,100318.34
2023-03-20T12:44:43.335Z,100317.53
2023-03-20T12:47:27.709Z,100318.47
2023-03-20T12:50:05.717Z,100322.06
2023-03-20T12:52:48.609Z,100316.03
2023-03-20T12:55:36.885Z,100314.34
2023-03-20T12:58:20.767Z,100316.03
2023-03-20T13:01:01.728Z,100313.38
2023-03-20T13:03:58.953Z,100309.88
2023-03-20T13:06:38.438Z,100301.28
2023-03-20T13:09:39.104Z,100310.78
2023-03-20T13:12:18.011Z,100313.38
2023-03-20T13:14:54.855Z,100307.25
2023-03-20T13:17:32.026Z,100312.44
2023-03-20T13:20:28.065Z,100308.06
2023-03-20T13:23:11.770Z,100313.16
2023-03-20T13:26:06.101Z,100304.50
2023-03-20T13:28:40.996Z,100311.47
2023-03-20T13:31:27.308Z,100296.72
2023-03-20T13:34:03.597Z,100303.78
2023-03-20T13:36:50.922Z,100297.69
2023-03-20T13:39:26.680Z,100301.22
2023-03-20T13:41:56.584Z,100298.56
2023-03-20T13:44:29.169Z,100302.09
2023-03-20T13:47:04.887Z,100307.28
2023-03-20T13:49:38.768Z,100301.22
2023-03-20T13:52:14.242Z,100302.06
2023-03-20T13:54:59.929Z,100295.00
2023-03-20T13:57:54.255Z,100300.28
2023-03-20T14:00:29.593Z,100289.94
2023-03-20T14:03:20.188Z,100283.00
2023-03-20T14:05:49.201Z,100277.81
2023-03-20T14:08:35.589Z,100279.56
2023-03-20T14:11:32.552Z,100271.06
2023-03-20T14:14:09.911Z,100290.09
2023-03-20T14:16:38.667Z,100270.16
2023-03-20T14:19:16.034Z,100276.31
2023-03-20T14:21:48.437Z,100276.31
2023-03-20T14:24:20.614Z,100277.13
2023-03-20T14:26:52.290Z,100281.50
2023-03-20T14:29:38.629Z,100272.03
2023-03-20T14:32:53.267Z,100266.84
2023-03-20T14:35:29.750Z,100267.72
2023-03-20T14:38:25.317Z,100270.31
2023-03-20T14:41:02.299Z,100271.25
2023-03-20T14:43:58.580Z,100266.88
2023-03-20T14:46:35.994Z,100266.88
2023-03-20T14:49:27.900Z,100264.28
2023-03-20T14:52:15.400Z,100265.19
2023-03-20T14:54:43.985Z,100253.00
2023-03-20T14:57:20.226Z,100247.09
2023-03-20T14:59:50.808Z,100248.88
2023-03-20T15:02:28.713Z,100238.63
2023-03-20T15:04:58.329Z,100241.28
2023-03-20T15:07:30.946Z,100238.00
2023-03-20T15:10:03.638Z,100236.28
2023-03-20T15:12:36.656Z,100240.75
2023-03-20T15:15:07.910Z,100237.38
2023-03-20T15:17:38.885Z,100233.91
2023-03-20T15:20:17.388Z,100226.88
2023-03-20T15:22:51.363Z,100234.78
2023-03-20T15:25:23.051Z,100227.88
2023-03-20T15:27:52.945Z,100227.00
2023-03-20T15:30:24.115Z,100233.03
2023-03-20T15:32:56.474Z,100234.78
2023-03-20T15:35:28.079Z,100231.31
2023-03-20T15:38:06.257Z,100229.59
2023-03-20T15:40:50.498Z,100230.44
2023-03-20T15:43:23.988Z,100222.59
2023-03-20T15:46:14.128Z,100219.03
2023-03-20T15:48:48.517Z,100212.94
2023-03-20T15:51:18.609Z,100204.22
2023-03-20T15:53:49.897Z,100208.44
2023-03-20T15:56:21.251Z,100195.47
2023-03-20T15:58:53.357Z,100188.50
2023-03-20T16:01:24.008Z,100192.72
2023-03-20T16:03:53.993Z,100191.03
2023-03-20T16:06:26.204Z,100185.81
2023-03-20T16:09:02.454Z,100179.66
2023-03-20T16:11:40.812Z,100184.75
2023-03-20T16:14:15.234Z,100185.53
2023-03-20T16:16:44.987Z,100183.81
2023-03-20T16:19:15.497Z,100181.16
2023-03-20T16:21:49.891Z,100181.22
2023-03-20T16:24:25.813Z,100184.72
2023-03-20T16:26:55.934Z,100182.94
2023-03-20T16:29:26.792Z,100182.03
2023-03-20T16:31:58.906Z,100187.22
2023-03-20T16:34:33.722Z,100180.28
2023-03-20T16:37:24.612Z,100184.56
2023-03-20T16:40:15.721Z,100174.97
2023-03-20T16:42:44.970Z,100197.47
2023-03-20T16:45:27.139Z,100194.94
2023-03-20T16:48:26.450Z,100192.16
2023-03-20T16:51:18.396Z,100189.47
2023-03-20T16:53:49.175Z,100201.63
2023-03-20T16:56:27.458Z,100191.19
2023-03-20T16:58:57.097Z,100198.97
2023-03-20T17:01:29.336Z,100194.66
2023-03-20T17:04:14.764Z,100198.97
2023-03-20T17:06:48.429Z,100198.06
2023-03-20T17:09:26.897Z,100203.34
2023-03-20T17:12:05.397Z,100198.97
2023-03-20T17:14:34.132Z,100187.69
2023-03-20T17:17:03.259Z,100192.97
2023-03-20T17:19:33.984Z,100194.81
2023-03-20T17:22:05.561Z,100188.75
2023-03-20T17:24:33.990Z,100193.03
2023-03-20T17:27:03.923Z,100196.44
2023-03-20T17:29:32.274Z,100206.81
2023-03-20T17:32:00.742Z,100209.28
2023-03-20T17:34:29.515Z,100207.53
2023-03-20T17:36:59.826Z,100210.94
2023-03-20T17:39:28.533Z,100219.44
2023-03-20T17:41:57.896Z,100221.13
2023-03-20T17:44:27.762Z,100220.25
2023-03-20T17:46:59.073Z,100220.25
2023-03-20T17:49:28.509Z,100234.09
2023-03-20T17:51:58.692Z,100227.91
2023-03-20T17:54:27.114Z,100227.91
2023-03-20T17:56:55.760Z,100234.88
2023-03-20T17:59:28.672Z,100232.38
2023-03-20T18:01:58.853Z,100239.25
2023-03-20T18:04:27.338Z,100228.00
2023-03-20T18:06:56.267Z,100228.81
2023-03-20T18:09:25.873Z,100234.88
2023-03-20T18:11:54.250Z,100227.03
2023-03-20T18:14:22.593Z,100228.81
2023-03-20T18:16:51.249Z,100226.22
2023-03-20T18:19:28.373Z,100230.63
2023-03-20T18:21:58.338Z,100236.72
2023-03-20T18:24:28.299Z,100222.00
2023-03-20T18:26:57.218Z,100224.59
2023-03-20T18:29:25.805Z,100232.38
2023-03-20T18:31:54.429Z,100229.69
2023-03-20T18:34:24.481Z,100220.13
2023-03-20T18:36:52.983Z,100228.72
2023-03-20T18:39:24.052Z,100220.13
2023-03-20T18:41:53.212Z,100229.53
2023-03-20T18:44:21.902Z,100220.88
2023-03-20T18:46:50.979Z,100213.94
2023-03-20T18:49:22.222Z,100214.66
2023-03-20T18:51:53.174Z,100219.78
2023-03-20T18:54:21.519Z,100218.06
2023-03-20T18:56:51.677Z,100215.47
2023-03-20T18:59:20.044Z,100219.78
2023-03-20T19:01:49.481Z,100217.16
2023-03-20T19:04:18.197Z,100219.66
2023-03-20T19:06:46.906Z,100198.91
2023-03-20T19:09:18.400Z,100210.09
2023-03-20T19:11:46.754Z,100210.91
2023-03-20T19:14:15.422Z,100210.91
2023-03-20T19:16:44.063Z,100211.78
2023-03-20T19:19:16.843Z,100212.69
2023-03-20T19:21:45.247Z,100205.72
2023-03-20T19:24:13.926Z,100204.91
2023-03-20T19:26:43.856Z,100207.50
2023-03-20T19:29:14.112Z,100205.72
2023-03-20T19:31:42.921Z,100188.38
2023-03-20T19:34:36.882Z,100197.13
2023-03-20T19:37:00.740Z,100185.88
2023-03-20T19:39:29.288Z,100192.75
2023-03-20T19:42:18.493Z,100202.31
2023-03-20T19:44:47.593Z,100210.91
2023-03-20T19:47:15.939Z,100202.25
2023-03-20T19:49:44.429Z,100198.75
2023-03-20T19:52:28.707Z,100195.44
2023-03-20T19:55:03.060Z,100194.53
2023-03-20T19:57:33.421Z,100201.34
2023-03-20T20:00:48.805Z,100206.53
2023-03-20T20:02:51.280Z,100191.94
2023-03-20T20:05:26.360Z,100195.34
2023-03-20T20:08:23.222Z,100197.13
2023-03-20T20:10:46.415Z,100185.78
2023-03-20T20:13:21.275Z,100184.84
2023-03-20T20:15:51.448Z,100184.84
2023-03-20T20:18:23.004Z,100184.03
2023-03-20T20:23:42.439Z,100187.53
2023-03-20T20:26:10.952Z,100178.91
2023-03-20T20:28:40.741Z,100172.09
2023-03-20T20:31:09.239Z,100174.69
2023-03-20T20:33:38.452Z,100183.34
2023-03-20T20:37:16.742Z,100181.66
2023-03-20T20:39:01.093Z,100180.69
2023-03-20T20:41:29.618Z,100175.56
2023-03-20T20:44:17.666Z,100174.75
2023-03-20T20:46:46.876Z,100168.59
2023-03-20T20:49:19.561Z,100173.72
2023-03-20T20:51:48.960Z,100170.22
2023-03-20T20:54:18.008Z,100173.69
2023-03-20T20:56:46.904Z,100165.81
2023-03-20T20:59:17.220Z,100165.00
2023-03-20T21:01:45.883Z,100165.91
2023-03-20T21:04:15.022Z,100165.06
2023-03-20T21:07:08.215Z,100162.47
2023-03-20T21:09:32.476Z,100168.53
2023-03-20T21:12:01.165Z,100160.84
2023-03-20T21:14:31.403Z,100172.97
2023-03-20T21:17:01.682Z,100164.31
2023-03-20T21:19:32.045Z,100161.81
2023-03-20T21:22:00.466Z,100166.97
2023-03-20T21:24:33.611Z,100165.19
2023-03-20T21:27:04.174Z,100165.19
2023-03-20T21:29:34.112Z,100170.38
2023-03-20T21:32:02.622Z,100169.50
2023-03-20T21:34:31.172Z,100170.31
2023-03-20T21:37:17.914Z,100164.22
2023-03-20T21:39:52.709Z,100166.84
2023-03-20T21:42:21.902Z,100165.91
2023-03-20T21:45:49.762Z,100166.78
2023-03-20T21:48:20.140Z,100161.44
2023-03-20T21:54:14.716Z,100162.34
2023-03-20T21:56:56.594Z,100165.75
2023-03-20T22:02:04.819Z,100163.97
2023-03-20T22:11:06.407Z,100175.91
2023-03-20T22:16:43.251Z,100172.31
2023-03-20T22:19:41.546Z,100172.31
2023-03-20T22:22:05.580Z,100180.91
2023-03-20T22:27:49.313Z,100180.94
2023-03-20T22:39:09.759Z,100181.84
2023-03-20T22:46:49.374Z,100177.63
2023-03-20T22:49:17.901Z,100173.25
2023-03-20T22:52:11.464Z,100175.09
2023-03-20T22:54:36.428Z,100178.59
2023-03-20T22:57:05.421Z,100169.91
2023-03-20T22:59:33.792Z,100176.94
2023-03-20T23:02:02.613Z,100165.75
2023-03-20T23:04:31.200Z,100161.53
2023-03-20T23:07:01.834Z,100165.91
2023-03-20T23:09:30.633Z,100164.13
2023-03-20T23:11:59.374Z,100158.03
2023-03-20T23:14:30.792Z,100153.75
2023-03-20T23:17:02.198Z,100151.97
2023-03-20T23:19:37.818Z,100153.75
2023-03-20T23:22:14.839Z,100150.34
2023-03-20T23:24:43.429Z,100152.97
2023-03-20T23:27:11.803Z,100146.09
2023-03-20T23:29:40.308Z,100151.22
2023-03-20T23:32:08.831Z,100151.97
2023-03-20T23:34:38.344Z,100151.81
2023-03-20T23:37:06.875Z,100151.81
2023-03-20T23:39:36.815Z,100151.00
2023-03-20T23:42:14.813Z,100151.81
2023-03-20T23:44:56.481Z,100144.88
2023-03-20T23:47:30.079Z,100142.28
2023-03-20T23:50:03.962Z,100141.31
2023-03-20T23:52:35.152Z,100136.13
2023-03-20T23:55:07.657Z,100133.63
2023-03-20T23:57:36.255Z,100118.06
